createdAt,value
2019-03-08T00:02:29.347Z,99640.69
2019-03-08T00:05:01.021Z,99640.63
2019-03-08T00:07:32.705Z,99647.11
2019-03-08T00:10:04.450Z,99652.64
2019-03-08T00:12:36.240Z,99661.83
2019-03-08T00:15:08.186Z,99657.99
2019-03-08T00:17:39.921Z,99658.84
2019-03-08T00:20:12.072Z,99663.06
2019-03-08T00:22:43.718Z,99674.34
2019-03-08T00:25:16.164Z,99676.86
2019-03-08T00:27:47.892Z,99685.76
2019-03-08T00:30:19.708Z,99679.66
2019-03-08T00:32:51.564Z,99683.59
2019-03-08T00:35:23.246Z,99684.98
2019-03-08T00:37:55.005Z,99695.41
2019-03-08T00:40:26.658Z,99698.48
2019-03-08T00:42:58.438Z,99701.96
2019-03-08T00:45:30.183Z,99700.66
2019-03-08T00:48:01.790Z,99704.66
2019-03-08T00:50:33.763Z,99711.32
2019-03-08T00:53:05.928Z,99701.96
2019-03-08T00:55:38.208Z,99705.91
2019-03-08T00:58:10.379Z,99706.08
2019-03-08T01:00:43.202Z,99705.47
2019-03-08T01:03:14.828Z,99707.05
2019-03-08T01:05:46.655Z,99712.05
2019-03-08T01:08:18.276Z,99706.19
2019-03-08T01:10:49.950Z,99707.67
2019-03-08T01:13:21.575Z,99715.22
2019-03-08T01:15:53.405Z,99712.77
2019-03-08T01:18:25.285Z,99719.49
2019-03-08T01:20:56.927Z,99712.22
2019-03-08T01:23:28.964Z,99709.23
2019-03-08T01:26:00.717Z,99708.92
2019-03-08T01:28:33.954Z,99703.67
2019-03-08T01:31:06.359Z,99706.75
2019-03-08T01:33:37.967Z,99705.05
2019-03-08T01:36:09.665Z,99700.27
2019-03-08T01:38:41.615Z,99704.98
2019-03-08T01:41:13.223Z,99699.73
2019-03-08T01:43:44.923Z,99704.52
2019-03-08T01:46:16.650Z,99708.92
2019-03-08T01:48:48.309Z,99712.45
2019-03-08T01:51:19.916Z,99726.95
2019-03-08T01:53:51.544Z,99735.05
2019-03-08T01:56:23.240Z,99751.47
2019-03-08T01:58:54.951Z,99754.71
2019-03-08T02:01:27.050Z,99753.47
2019-03-08T02:04:00.209Z,99755.52
2019-03-08T02:06:31.867Z,99770.79
2019-03-08T02:09:04.098Z,99768.65
2019-03-08T02:11:35.810Z,99766.50
2019-03-08T02:14:07.646Z,99748.28
2019-03-08T02:16:39.395Z,99743.41
2019-03-08T02:19:11.078Z,99728.90
2019-03-08T02:21:42.784Z,99735.65
2019-03-08T02:24:14.459Z,99738.88
2019-03-08T02:26:46.111Z,99744.22
2019-03-08T02:29:18.071Z,99745.13
2019-03-08T02:31:49.744Z,99746.53
2019-03-08T02:34:21.461Z,99749.15
2019-03-08T02:36:53.154Z,99750.52
2019-03-08T02:39:24.928Z,99746.70
2019-03-08T02:41:56.729Z,99756.86
2019-03-08T02:44:28.394Z,99767.84
2019-03-08T02:46:59.995Z,99765.31
2019-03-08T02:49:32.068Z,99756.22
2019-03-08T02:52:03.713Z,99758.44
2019-03-08T02:54:35.399Z,99759.73
2019-03-08T02:57:07.443Z,99771.97
2019-03-08T02:59:39.735Z,99775.48
2019-03-08T03:02:11.558Z,99776.44
2019-03-08T03:04:43.614Z,99791.64
2019-03-08T03:07:15.207Z,99784.34
2019-03-08T03:09:47.161Z,99793.89
2019-03-08T03:12:18.819Z,99791.27
2019-03-08T03:14:50.512Z,99784.73
2019-03-08T03:17:22.172Z,99788.26
2019-03-08T03:19:54.053Z,99800.03
2019-03-08T03:22:25.920Z,99803.95
2019-03-08T03:24:57.564Z,99809.13
2019-03-08T03:27:29.418Z,99803.09
2019-03-08T03:30:01.273Z,99805.86
2019-03-08T03:32:32.940Z,99808.08
2019-03-08T03:35:04.838Z,99807.22
2019-03-08T03:37:36.550Z,99813.30
2019-03-08T03:40:09.921Z,99813.30
2019-03-08T03:42:41.529Z,99813.76
2019-03-08T03:45:13.687Z,99819.45
2019-03-08T03:47:45.441Z,99824.28
2019-03-08T03:50:18.526Z,99820.81
2019-03-08T03:52:50.481Z,99820.81
2019-03-08T03:55:22.499Z,99833.03
2019-03-08T03:57:55.124Z,99840.02
2019-03-08T04:00:27.184Z,99846.50
2019-03-08T04:02:59.149Z,99841.67
2019-03-08T04:05:30.874Z,99848.16
2019-03-08T04:08:02.892Z,99848.07
2019-03-08T04:10:34.856Z,99854.95
2019-03-08T04:13:09.051Z,99847.97
2019-03-08T04:15:42.255Z,99857.88
2019-03-08T04:18:15.446Z,99862.66
2019-03-08T04:20:47.362Z,99864.37
2019-03-08T04:23:19.346Z,99863.12
2019-03-08T04:25:51.015Z,99861.44
2019-03-08T04:28:22.868Z,99861.04
2019-03-08T04:30:54.535Z,99868.55
2019-03-08T04:33:26.154Z,99874.82
2019-03-08T04:35:57.827Z,99885.42
2019-03-08T04:38:29.617Z,99884.22
2019-03-08T04:41:01.527Z,99889.98
2019-03-08T04:43:33.198Z,99893.56
2019-03-08T04:46:04.919Z,99895.91
2019-03-08T04:48:36.537Z,99896.42
2019-03-08T04:51:08.198Z,99907.47
2019-03-08T04:53:39.995Z,99912.75
2019-03-08T04:56:11.760Z,99917.66
2019-03-08T04:58:43.765Z,99916.35
2019-03-08T05:01:15.752Z,99923.74
2019-03-08T05:03:47.527Z,99925.05
2019-03-08T05:06:20.111Z,99926.86
2019-03-08T05:08:51.897Z,99936.91
2019-03-08T05:11:23.567Z,99944.81
2019-03-08T05:13:55.265Z,99940.52
2019-03-08T05:16:26.872Z,99942.78
2019-03-08T05:18:58.745Z,99941.47
2019-03-08T05:21:30.799Z,99945.39
2019-03-08T05:24:02.541Z,99944.62
2019-03-08T05:26:34.178Z,99949.95
2019-03-08T05:29:05.848Z,99947.02
2019-03-08T05:31:37.728Z,99942.73
2019-03-08T05:34:09.699Z,99938.02
2019-03-08T05:36:41.354Z,99945.08
2019-03-08T05:39:14.956Z,99947.29
2019-03-08T05:41:46.597Z,99947.79
2019-03-08T05:44:18.327Z,99950.53
2019-03-08T05:46:49.976Z,99959.41
2019-03-08T05:49:21.869Z,99966.03
2019-03-08T05:51:53.625Z,99976.94
2019-03-08T05:54:25.290Z,99977.02
2019-03-08T05:56:57.101Z,99983.95
2019-03-08T05:59:29.277Z,99984.41
2019-03-08T06:02:00.917Z,99991.88
2019-03-08T06:04:32.650Z,99999.27
2019-03-08T06:07:04.404Z,99998.02
2019-03-08T06:09:36.015Z,100007.61
2019-03-08T06:12:07.778Z,100004.72
2019-03-08T06:14:39.386Z,100009.16
2019-03-08T06:17:11.263Z,100009.66
2019-03-08T06:19:42.894Z,100020.56
2019-03-08T06:22:14.702Z,100027.09
2019-03-08T06:24:46.307Z,100026.19
2019-03-08T06:27:18.292Z,100020.92
2019-03-08T06:29:49.980Z,100019.13
2019-03-08T06:32:21.628Z,100027.78
2019-03-08T06:34:53.474Z,100023.91
2019-03-08T06:37:25.213Z,100029.08
2019-03-08T06:39:56.847Z,100038.68
2019-03-08T06:42:28.883Z,100037.77
2019-03-08T06:45:00.562Z,100051.13
2019-03-08T06:47:32.524Z,100064.02
2019-03-08T06:50:04.467Z,100059.44
2019-03-08T06:52:36.545Z,100067.02
2019-03-08T06:55:09.641Z,100067.13
2019-03-08T06:57:42.057Z,100079.39
2019-03-08T07:00:35.950Z,100076.52
2019-03-08T07:03:08.367Z,100081.89
2019-03-08T07:05:40.062Z,100090.05
2019-03-08T07:08:13.562Z,100096.00
2019-03-08T07:10:45.101Z,100093.34
2019-03-08T07:13:16.934Z,100097.94
2019-03-08T07:15:48.575Z,100109.53
2019-03-08T07:18:20.679Z,100106.70
2019-03-08T07:21:09.973Z,100108.59
2019-03-08T07:24:00.620Z,100110.71
2019-03-08T07:26:42.927Z,100126.41
2019-03-08T07:29:23.845Z,100125.50
2019-03-08T07:32:26.441Z,100138.51
2019-03-08T07:35:26.051Z,100139.81
2019-03-08T07:38:28.536Z,100144.14
2019-03-08T07:41:21.803Z,100149.83
2019-03-08T07:44:12.498Z,100151.14
2019-03-08T07:47:01.610Z,100158.94
2019-03-08T07:49:49.058Z,100159.84
2019-03-08T07:52:42.375Z,100157.00
2019-03-08T07:55:42.503Z,100164.57
2019-03-08T07:58:34.528Z,100175.94
2019-03-08T08:01:11.662Z,100189.47
2019-03-08T08:04:05.082Z,100189.42
2019-03-08T08:07:04.640Z,100195.39
2019-03-08T08:09:55.275Z,100193.63
2019-03-08T08:12:48.883Z,100187.67
2019-03-08T08:15:42.543Z,100197.39
2019-03-08T08:18:30.803Z,100201.81
2019-03-08T08:21:30.520Z,100204.47
2019-03-08T08:24:24.874Z,100214.58
2019-03-08T08:27:15.171Z,100223.41
2019-03-08T08:30:01.477Z,100235.80
2019-03-08T08:32:58.359Z,100231.13
2019-03-08T08:35:51.804Z,100246.08
2019-03-08T08:38:42.357Z,100252.61
2019-03-08T08:41:44.802Z,100246.99
2019-03-08T08:44:50.239Z,100247.02
2019-03-08T08:50:50.036Z,100238.28
2019-03-08T08:53:31.679Z,100247.47
2019-03-08T08:56:29.962Z,100248.33
2019-03-08T08:59:25.832Z,100245.14
2019-03-08T09:02:22.425Z,100250.02
2019-03-08T09:05:05.034Z,100253.93
2019-03-08T09:07:54.089Z,100247.69
2019-03-08T09:10:53.389Z,100257.92
2019-03-08T09:13:49.327Z,100265.34
2019-03-08T09:16:36.203Z,100261.86
2019-03-08T09:19:17.994Z,100266.05
2019-03-08T09:21:59.330Z,100254.23
2019-03-08T09:24:48.154Z,100262.50
2019-03-08T09:27:39.813Z,100263.36
2019-03-08T09:30:44.405Z,100261.63
2019-03-08T09:33:29.868Z,100262.23
2019-03-08T09:36:26.210Z,100263.93
2019-03-08T09:39:15.225Z,100264.91
2019-03-08T09:41:56.181Z,100277.69
2019-03-08T09:44:52.664Z,100275.30
2019-03-08T09:47:52.295Z,100280.10
2019-03-08T09:50:44.861Z,100284.34
2019-03-08T09:53:20.466Z,100290.97
2019-03-08T09:56:11.491Z,100300.58
2019-03-08T09:59:17.664Z,100311.59
2019-03-08T10:01:59.631Z,100301.97
2019-03-08T10:04:57.385Z,100302.89
2019-03-08T10:07:43.640Z,100304.45
2019-03-08T10:10:25.521Z,100305.48
2019-03-08T10:13:25.144Z,100308.98
2019-03-08T10:16:13.572Z,100309.10
2019-03-08T10:19:09.906Z,100311.80
2019-03-08T10:22:03.853Z,100316.35
2019-03-08T10:24:57.682Z,100312.17
2019-03-08T10:27:39.666Z,100322.97
2019-03-08T10:30:31.889Z,100328.37
2019-03-08T10:33:35.301Z,100334.95
2019-03-08T10:36:28.696Z,100334.64
2019-03-08T10:39:25.088Z,100330.79
2019-03-08T10:42:15.685Z,100348.18
2019-03-08T10:45:02.469Z,100342.41
2019-03-08T10:47:56.484Z,100346.41
2019-03-08T10:50:51.634Z,100342.52
2019-03-08T10:53:34.626Z,100347.97
2019-03-08T10:56:24.121Z,100356.75
2019-03-08T10:59:13.648Z,100356.78
2019-03-08T11:02:10.628Z,100366.55
2019-03-08T11:04:52.564Z,100379.17
2019-03-08T11:07:48.454Z,100391.55
2019-03-08T11:10:34.664Z,100391.91
2019-03-08T11:13:42.834Z,100384.17
2019-03-08T11:16:20.318Z,100390.08
2019-03-08T11:19:12.367Z,100400.77
2019-03-08T11:22:01.342Z,100391.20
2019-03-08T11:24:48.510Z,100392.78
2019-03-08T11:27:27.455Z,100393.97
2019-03-08T11:30:13.781Z,100394.83
2019-03-08T11:33:04.040Z,100392.72
2019-03-08T11:35:40.359Z,100392.13
2019-03-08T11:38:29.630Z,100395.90
2019-03-08T11:41:25.002Z,100381.61
2019-03-08T11:44:21.579Z,100392.71
2019-03-08T11:47:21.372Z,100385.54
2019-03-08T11:50:18.155Z,100384.78
2019-03-08T11:53:08.653Z,100379.28
2019-03-08T11:56:02.875Z,100373.31
2019-03-08T11:58:45.811Z,100378.60
2019-03-08T12:01:45.544Z,100400.99
2019-03-08T12:04:44.694Z,100404.06
2019-03-08T12:07:38.346Z,100436.26
2019-03-08T12:10:39.626Z,100455.07
2019-03-08T12:13:39.406Z,100476.35
2019-03-08T12:16:33.887Z,100479.38
2019-03-08T12:19:31.102Z,100491.11
2019-03-08T12:22:10.183Z,100494.44
2019-03-08T12:25:01.418Z,100494.89
2019-03-08T12:27:48.842Z,100497.20
2019-03-08T12:30:43.205Z,100503.41
2019-03-08T12:33:51.934Z,100500.65
2019-03-08T12:36:34.044Z,100496.36
2019-03-08T12:39:26.050Z,100496.18
2019-03-08T12:42:19.283Z,100498.59
2019-03-08T12:45:13.649Z,100502.17
2019-03-08T12:48:14.013Z,100500.78
2019-03-08T12:51:07.720Z,100499.77
2019-03-08T12:54:04.260Z,100504.97
2019-03-08T12:56:43.699Z,100497.92
2019-03-08T12:59:25.697Z,100499.54
2019-03-08T13:02:16.251Z,100501.48
2019-03-08T13:04:58.815Z,100508.66
2019-03-08T13:07:55.582Z,100506.22
2019-03-08T13:10:27.251Z,100510.98
2019-03-08T13:12:58.962Z,100500.67
2019-03-08T13:15:30.629Z,100500.67
2019-03-08T13:18:02.428Z,100503.61
2019-03-08T13:20:34.109Z,100497.30
2019-03-08T13:23:06.123Z,100494.30
2019-03-08T13:25:37.872Z,100495.51
2019-03-08T13:28:09.615Z,100489.67
2019-03-08T13:30:41.480Z,100497.22
2019-03-08T13:33:13.177Z,100487.73
2019-03-08T13:35:45.006Z,100486.28
2019-03-08T13:38:17.167Z,100484.27
2019-03-08T13:40:48.969Z,100489.67
2019-03-08T13:43:21.613Z,100488.43
2019-03-08T13:45:53.318Z,100496.52
2019-03-08T13:48:25.127Z,100495.00
2019-03-08T13:50:56.863Z,100497.78
2019-03-08T13:53:28.566Z,100504.41
2019-03-08T13:56:00.357Z,100499.80
2019-03-08T13:58:32.423Z,100492.50
2019-03-08T14:01:04.307Z,100502.43
2019-03-08T14:03:36.014Z,100499.41
2019-03-08T14:06:07.870Z,100507.41
2019-03-08T14:08:40.106Z,100516.03
2019-03-08T14:11:12.193Z,100512.33
2019-03-08T14:13:44.209Z,100506.06
2019-03-08T14:16:15.942Z,100500.74
2019-03-08T14:18:47.637Z,100505.02
2019-03-08T14:21:19.579Z,100505.73
2019-03-08T14:23:51.595Z,100507.91
2019-03-08T14:26:23.458Z,100514.87
2019-03-08T14:28:55.147Z,100521.70
2019-03-08T14:31:49.518Z,100515.30
2019-03-08T14:34:21.835Z,100513.71
2019-03-08T14:36:53.532Z,100508.63
2019-03-08T14:39:25.280Z,100508.01
2019-03-08T14:42:22.286Z,100510.42
2019-03-08T14:45:07.781Z,100501.61
2019-03-08T14:47:44.161Z,100495.77
2019-03-08T14:50:15.988Z,100496.45
2019-03-08T14:52:47.739Z,100495.75
2019-03-08T14:55:22.659Z,100494.64
2019-03-08T14:57:55.277Z,100494.37
2019-03-08T15:00:30.603Z,100503.89
2019-03-08T15:03:02.319Z,100497.98
2019-03-08T15:05:34.027Z,100493.25
2019-03-08T15:08:06.164Z,100511.60
2019-03-08T15:10:39.683Z,100528.25
2019-03-08T15:13:11.448Z,100514.94
2019-03-08T15:15:43.233Z,100509.92
2019-03-08T15:18:15.150Z,100513.22
2019-03-08T15:20:46.933Z,100519.83
2019-03-08T15:23:18.719Z,100516.30
2019-03-08T15:25:50.643Z,100510.15
2019-03-08T15:28:22.445Z,100510.87
2019-03-08T15:30:54.102Z,100505.91
2019-03-08T15:33:25.809Z,100502.63
2019-03-08T15:35:57.548Z,100504.08
2019-03-08T15:38:30.669Z,100505.34
2019-03-08T15:41:02.584Z,100503.55
2019-03-08T15:43:34.283Z,100497.13
2019-03-08T15:46:06.071Z,100496.87
2019-03-08T15:48:38.293Z,100490.81
2019-03-08T15:51:09.981Z,100495.61
2019-03-08T15:53:41.635Z,100496.06
2019-03-08T15:56:13.338Z,100491.27
2019-03-08T15:58:44.995Z,100499.20
2019-03-08T16:01:16.894Z,100494.50
2019-03-08T16:03:48.588Z,100490.16
2019-03-08T16:06:20.331Z,100489.84
2019-03-08T16:08:52.105Z,100496.06
2019-03-08T16:11:23.745Z,100493.03
2019-03-08T16:13:55.652Z,100493.18
2019-03-08T16:16:27.521Z,100495.46
2019-03-08T16:18:59.253Z,100499.09
2019-03-08T16:21:30.993Z,100497.83
2019-03-08T16:24:02.686Z,100489.95
2019-03-08T16:26:34.435Z,100485.95
2019-03-08T16:29:06.005Z,100487.27
2019-03-08T16:32:08.797Z,100495.14
2019-03-08T16:34:40.308Z,100498.28
2019-03-08T16:37:17.242Z,100494.48
2019-03-08T16:39:55.239Z,100497.11
2019-03-08T16:42:51.721Z,100495.39
2019-03-08T16:45:42.040Z,100493.63
2019-03-08T16:48:44.204Z,100497.56
2019-03-08T16:51:34.487Z,100502.42
2019-03-08T16:54:13.742Z,100501.70
2019-03-08T16:57:16.351Z,100511.86
2019-03-08T17:00:07.010Z,100512.00
2019-03-08T17:03:03.571Z,100511.79
2019-03-08T17:06:00.308Z,100522.86
2019-03-08T17:08:45.798Z,100526.61
2019-03-08T17:11:36.316Z,100524.68
2019-03-08T17:14:27.050Z,100526.64
2019-03-08T17:17:35.723Z,100529.00
2019-03-08T17:20:19.365Z,100533.57
2019-03-08T17:23:27.714Z,100533.85
2019-03-08T17:26:09.799Z,100547.56
2019-03-08T17:28:51.125Z,100556.07
2019-03-08T17:31:29.434Z,100552.25
2019-03-08T17:34:19.111Z,100548.03
2019-03-08T17:36:59.810Z,100555.63
2019-03-08T17:40:08.567Z,100547.08
2019-03-08T17:43:02.277Z,100554.22
2019-03-08T17:45:52.053Z,100546.53
2019-03-08T17:48:38.971Z,100543.67
2019-03-08T17:51:30.744Z,100558.64
2019-03-08T17:54:30.826Z,100561.11
2019-03-08T17:57:22.678Z,100562.11
2019-03-08T18:00:28.367Z,100568.91
2019-03-08T18:03:18.027Z,100571.30
2019-03-08T18:06:13.318Z,100569.17
2019-03-08T18:08:51.916Z,100578.39
2019-03-08T18:11:43.821Z,100583.19
2019-03-08T18:14:37.523Z,100584.45
2019-03-08T18:17:37.262Z,100588.83
2019-03-08T18:20:25.124Z,100592.77
2019-03-08T18:23:13.503Z,100594.65
2019-03-08T18:26:04.294Z,100597.77
2019-03-08T18:28:54.829Z,100599.57
2019-03-08T18:31:44.229Z,100605.84
2019-03-08T18:34:50.099Z,100599.81
2019-03-08T18:37:41.231Z,100599.81
2019-03-08T18:40:35.519Z,100597.23
2019-03-08T18:43:14.656Z,100594.16
2019-03-08T18:46:10.841Z,100592.40
2019-03-08T18:48:51.447Z,100586.63
2019-03-08T18:51:41.227Z,100590.56
2019-03-08T18:54:23.758Z,100592.28
2019-03-08T18:57:22.696Z,100606.66
2019-03-08T19:00:12.320Z,100604.03
2019-03-08T19:02:57.252Z,100606.66
2019-03-08T19:05:36.540Z,100607.97
2019-03-08T19:08:15.781Z,100602.77
2019-03-08T19:11:05.009Z,100596.25
2019-03-08T19:13:55.671Z,100596.25
2019-03-08T19:16:43.526Z,100599.36
2019-03-08T19:19:32.929Z,100596.73
2019-03-08T19:22:32.475Z,100606.36
2019-03-08T19:25:23.190Z,100608.12
2019-03-08T19:28:05.953Z,100612.05
2019-03-08T19:30:55.552Z,100613.00
2019-03-08T19:33:34.716Z,100620.53
2019-03-08T19:36:29.255Z,100618.81
2019-03-08T19:39:28.731Z,100621.88
2019-03-08T19:42:20.124Z,100631.05
2019-03-08T19:45:10.945Z,100625.86
2019-03-08T19:48:19.461Z,100622.83
2019-03-08T19:51:16.012Z,100628.19
2019-03-08T19:54:07.379Z,100633.87
2019-03-08T19:56:51.162Z,100629.05
2019-03-08T19:59:37.175Z,100632.48
2019-03-08T20:02:27.660Z,100636.79
2019-03-08T20:05:18.152Z,100638.17
2019-03-08T20:08:06.411Z,100636.41
2019-03-08T20:10:56.058Z,100633.31
2019-03-08T20:13:45.838Z,100633.27
2019-03-08T20:16:39.407Z,100638.95
2019-03-08T20:19:33.043Z,100642.03
2019-03-08T20:22:29.938Z,100642.89
2019-03-08T20:25:19.668Z,100645.10
2019-03-08T20:28:19.705Z,100647.27
2019-03-08T20:31:07.862Z,100641.29
2019-03-08T20:33:53.994Z,100636.61
2019-03-08T20:36:51.023Z,100633.59
2019-03-08T20:39:40.347Z,100628.38
2019-03-08T20:42:29.833Z,100626.63
2019-03-08T20:45:23.470Z,100626.17
2019-03-08T20:47:55.371Z,100626.13
2019-03-08T20:50:27.241Z,100623.06
2019-03-08T20:52:59.077Z,100641.29
2019-03-08T20:55:30.911Z,100638.62
2019-03-08T20:58:03.297Z,100629.86
2019-03-08T21:00:35.996Z,100630.64
2019-03-08T21:03:07.958Z,100634.50
2019-03-08T21:05:39.781Z,100637.45
2019-03-08T21:08:11.519Z,100637.90
2019-03-08T21:10:43.279Z,100628.32
2019-03-08T21:13:15.271Z,100629.18
2019-03-08T21:15:47.089Z,100630.94
2019-03-08T21:18:19.063Z,100634.88
2019-03-08T21:20:52.426Z,100631.47
2019-03-08T21:23:24.210Z,100635.89
2019-03-08T21:25:56.150Z,100627.28
2019-03-08T21:28:28.294Z,100623.39
2019-03-08T21:31:00.495Z,100622.08
2019-03-08T21:33:32.365Z,100627.73
2019-03-08T21:36:04.293Z,100622.91
2019-03-08T21:38:36.199Z,100619.83
2019-03-08T21:41:08.476Z,100615.04
2019-03-08T21:43:40.359Z,100610.70
2019-03-08T21:46:12.154Z,100615.98
2019-03-08T21:48:43.901Z,100609.88
2019-03-08T21:51:15.715Z,100604.76
2019-03-08T21:53:47.486Z,100596.94
2019-03-08T21:56:19.492Z,100603.05
2019-03-08T21:58:51.313Z,100608.33
2019-03-08T22:01:23.686Z,100606.19
2019-03-08T22:04:00.721Z,100609.26
2019-03-08T22:06:32.737Z,100597.92
2019-03-08T22:09:15.188Z,100606.27
2019-03-08T22:11:47.546Z,100597.59
2019-03-08T22:14:19.485Z,100594.19
2019-03-08T22:16:51.334Z,100597.22
2019-03-08T22:19:23.062Z,100591.98
2019-03-08T22:21:54.791Z,100599.84
2019-03-08T22:24:26.700Z,100595.38
2019-03-08T22:26:58.539Z,100590.55
2019-03-08T22:29:30.434Z,100598.81
2019-03-08T22:32:02.244Z,100585.42
2019-03-08T22:34:35.368Z,100585.02
2019-03-08T22:37:07.131Z,100580.27
2019-03-08T22:39:38.877Z,100568.59
2019-03-08T22:42:10.628Z,100569.09
2019-03-08T22:44:42.654Z,100565.69
2019-03-08T22:47:14.692Z,100558.73
2019-03-08T22:49:46.631Z,100559.22
2019-03-08T22:52:18.393Z,100560.98
2019-03-08T22:54:50.084Z,100562.81
2019-03-08T22:57:21.808Z,100565.52
2019-03-08T22:59:53.550Z,100565.11
2019-03-08T23:05:08.530Z,100554.14
2019-03-08T23:07:40.249Z,100547.83
2019-03-08T23:10:13.204Z,100541.36
2019-03-08T23:12:45.929Z,100538.74
2019-03-08T23:15:18.193Z,100536.66
2019-03-08T23:17:51.443Z,100542.83
2019-03-08T23:20:23.367Z,100535.91
2019-03-08T23:22:55.139Z,100533.74
2019-03-08T23:25:26.778Z,100538.13
2019-03-08T23:28:17.678Z,100540.29
2019-03-08T23:30:51.152Z,100532.02
2019-03-08T23:33:23.090Z,100529.48
2019-03-08T23:35:54.875Z,100522.94
2019-03-08T23:38:26.609Z,100522.08
2019-03-08T23:40:58.301Z,100517.28
2019-03-08T23:43:30.068Z,100515.57
2019-03-08T23:46:01.882Z,100526.08
2019-03-08T23:48:33.590Z,100525.67
2019-03-08T23:51:05.278Z,100527.88
2019-03-08T23:53:37.064Z,100529.23
2019-03-08T23:56:09.056Z,100524.97
2019-03-08T23:58:41.076Z,100529.80
